createdAt,value
2022-10-20T00:02:13.556Z,100880.59
2022-10-20T00:05:00.512Z,100892.34
2022-10-20T00:07:47.545Z,100899.00
2022-10-20T00:10:34.521Z,100899.63
2022-10-20T00:13:14.903Z,100890.72
2022-10-20T00:16:05.504Z,100887.56
2022-10-20T00:18:46.055Z,100889.13
2022-10-20T00:21:35.529Z,100889.53
2022-10-20T00:24:15.911Z,100883.19
2022-10-20T00:27:02.504Z,100895.38
2022-10-20T00:29:42.886Z,100897.50
2022-10-20T00:32:29.516Z,100897.81
2022-10-20T00:35:09.905Z,100899.63
2022-10-20T00:37:56.499Z,100903.88
2022-10-20T00:40:43.521Z,100906.94
2022-10-20T00:43:31.487Z,100906.34
2022-10-20T00:46:21.564Z,100902.06
2022-10-20T00:49:09.471Z,100896.31
2022-10-20T00:52:01.495Z,100900.56
2022-10-20T00:54:41.616Z,100905.00
2022-10-20T00:57:28.469Z,100908.41
2022-10-20T01:00:08.984Z,100910.50
2022-10-20T01:02:57.467Z,100913.28
2022-10-20T01:05:37.589Z,100910.25
2022-10-20T01:08:24.594Z,100911.47
2022-10-20T01:11:35.482Z,100914.72
2022-10-20T01:14:28.464Z,100927.06
2022-10-20T01:17:25.561Z,100934.69
2022-10-20T01:20:32.405Z,100938.84
2022-10-20T01:23:47.463Z,100936.00
2022-10-20T01:26:49.453Z,100942.41
2022-10-20T01:29:49.513Z,100951.88
2022-10-20T01:32:45.417Z,100948.16
2022-10-20T01:36:13.403Z,100952.06
2022-10-20T01:39:04.016Z,100950.44
2022-10-20T01:42:00.392Z,100948.31
2022-10-20T01:44:42.453Z,100950.44
2022-10-20T01:47:30.371Z,100944.41
2022-10-20T01:50:12.797Z,100940.34
2022-10-20T01:52:59.417Z,100944.72
2022-10-20T01:55:40.772Z,100940.34
2022-10-20T01:58:36.388Z,100946.50
2022-10-20T02:01:38.435Z,100949.78
2022-10-20T02:04:26.402Z,100956.09
2022-10-20T02:07:18.263Z,100950.06
2022-10-20T02:10:09.391Z,100955.56
2022-10-20T02:13:00.356Z,100954.38
2022-10-20T02:15:45.493Z,100956.00
2022-10-20T02:18:40.389Z,100960.06
2022-10-20T02:21:20.763Z,100960.22
2022-10-20T02:24:11.369Z,100963.28
2022-10-20T02:26:51.437Z,100971.94
2022-10-20T02:29:45.393Z,100970.34
2022-10-20T02:32:25.449Z,100968.59
2022-10-20T02:35:16.362Z,100984.00
2022-10-20T02:37:57.471Z,100978.13
2022-10-20T02:40:44.380Z,100986.75
2022-10-20T02:43:24.433Z,100986.72
2022-10-20T02:46:11.332Z,100987.00
2022-10-20T02:48:51.417Z,100980.00
2022-10-20T02:51:38.300Z,100979.63
2022-10-20T02:54:18.398Z,100971.84
2022-10-20T02:57:05.336Z,100987.94
2022-10-20T02:59:45.419Z,100997.22
2022-10-20T03:02:32.318Z,100990.28
2022-10-20T03:25:55.252Z,101006.75
2022-10-20T03:28:42.268Z,101014.13
2022-10-20T03:31:22.390Z,101013.03
2022-10-20T03:34:09.275Z,101026.75
2022-10-20T03:36:49.366Z,101017.97
2022-10-20T03:39:36.232Z,101033.63
2022-10-20T03:42:23.246Z,101037.59
2022-10-20T03:45:13.752Z,101041.66
2022-10-20T03:47:56.363Z,101038.22
2022-10-20T03:50:49.235Z,101038.22
2022-10-20T03:53:36.199Z,101037.59
2022-10-20T03:56:20.320Z,101043.69
2022-10-20T03:59:00.268Z,101048.56
2022-10-20T04:01:41.353Z,101050.19
2022-10-20T04:04:28.180Z,101056.63
2022-10-20T04:07:08.331Z,101059.50
2022-10-20T04:09:55.232Z,101054.63
2022-10-20T04:12:42.223Z,101058.16
2022-10-20T04:15:29.200Z,101066.53
2022-10-20T04:18:16.208Z,101073.25
2022-10-20T04:21:03.212Z,101074.38
2022-10-20T04:23:43.313Z,101074.81
2022-10-20T04:26:30.169Z,101075.66
2022-10-20T04:29:17.199Z,101071.25
2022-10-20T04:32:04.191Z,101078.75
2022-10-20T04:34:51.155Z,101078.91
2022-10-20T04:37:31.613Z,101085.59
2022-10-20T04:40:18.196Z,101088.84
2022-10-20T04:43:01.943Z,101090.50
2022-10-20T04:45:50.120Z,101098.66
2022-10-20T04:48:37.231Z,101093.63
2022-10-20T04:51:19.260Z,101094.44
2022-10-20T04:57:01.114Z,101095.59
2022-10-20T04:59:41.558Z,101096.13
2022-10-20T05:02:28.138Z,101106.69
2022-10-20T05:05:09.080Z,101105.41
2022-10-20T05:07:56.156Z,101110.44
2022-10-20T05:10:43.145Z,101114.19
2022-10-20T05:13:30.121Z,101116.97
2022-10-20T05:16:18.143Z,101122.34
2022-10-20T05:19:05.160Z,101128.22
2022-10-20T05:21:45.724Z,101137.84
2022-10-20T05:24:32.122Z,101138.34
2022-10-20T05:27:12.506Z,101151.22
2022-10-20T05:29:59.109Z,101148.63
2022-10-20T05:32:39.454Z,101154.97
2022-10-20T05:35:26.134Z,101156.59
2022-10-20T05:38:13.141Z,101164.09
2022-10-20T05:41:00.111Z,101172.56
2022-10-20T05:43:47.103Z,101177.28
2022-10-20T05:46:34.066Z,101191.25
2022-10-20T05:49:17.502Z,101188.91
2022-10-20T05:52:04.067Z,101201.31
2022-10-20T05:54:44.475Z,101189.75
2022-10-20T05:57:31.112Z,101196.00
2022-10-20T06:00:12.030Z,101210.56
2022-10-20T06:02:59.066Z,101212.47
2022-10-20T06:05:46.089Z,101211.81
2022-10-20T06:08:26.204Z,101210.72
2022-10-20T06:11:16.114Z,101220.31
2022-10-20T06:13:56.162Z,101222.31
2022-10-20T06:16:43.024Z,101215.00
2022-10-20T06:19:23.271Z,101220.53
2022-10-20T06:22:10.072Z,101240.13
2022-10-20T06:25:04.041Z,101245.34
2022-10-20T06:27:51.051Z,101240.59
2022-10-20T06:30:38.061Z,101242.88
2022-10-20T06:33:18.421Z,101242.38
2022-10-20T06:36:05.036Z,101252.63
2022-10-20T06:38:46.067Z,101249.22
2022-10-20T06:41:33.026Z,101249.03
2022-10-20T06:44:17.957Z,101268.31
2022-10-20T06:47:05.030Z,101258.03
2022-10-20T06:49:45.445Z,101268.31
2022-10-20T06:52:32.003Z,101249.88
2022-10-20T06:55:12.413Z,101267.22
2022-10-20T06:57:59.011Z,101258.38
2022-10-20T07:00:46.006Z,101274.25
2022-10-20T07:03:33.029Z,101278.47
2022-10-20T07:06:19.329Z,101288.94
2022-10-20T07:09:08.109Z,101300.84
2022-10-20T07:11:58.984Z,101293.34
2022-10-20T07:14:39.063Z,101299.97
2022-10-20T07:17:26.003Z,101299.97
2022-10-20T07:20:12.937Z,101274.19
2022-10-20T07:22:53.308Z,101286.81
2022-10-20T07:25:39.960Z,101288.53
2022-10-20T07:28:27.919Z,101308.41
2022-10-20T07:31:20.983Z,101290.31
2022-10-20T07:34:13.587Z,101322.91
2022-10-20T07:37:09.978Z,101305.94
2022-10-20T07:39:56.932Z,101310.16
2022-10-20T07:42:43.957Z,101320.16
2022-10-20T07:45:30.962Z,101315.59
2022-10-20T07:48:11.092Z,101313.81
2022-10-20T07:50:57.896Z,101317.56
2022-10-20T07:53:44.920Z,101325.94
2022-10-20T07:56:28.626Z,101319.94
2022-10-20T07:59:14.955Z,101323.69
2022-10-20T08:01:56.336Z,101334.81
2022-10-20T08:04:45.989Z,101335.91
2022-10-20T08:07:32.879Z,101333.09
2022-10-20T08:10:14.030Z,101341.56
2022-10-20T08:13:00.890Z,101334.28
2022-10-20T08:15:56.696Z,101326.72
2022-10-20T08:18:40.605Z,101346.50
2022-10-20T08:21:29.892Z,101343.09
2022-10-20T08:24:16.914Z,101345.88
2022-10-20T08:27:03.874Z,101353.38
2022-10-20T08:29:50.800Z,101356.00
2022-10-20T08:32:46.870Z,101366.97
2022-10-20T08:35:27.675Z,101378.06
2022-10-20T08:38:14.865Z,101366.47
2022-10-20T08:41:01.898Z,101373.31
2022-10-20T08:43:46.950Z,101375.91
2022-10-20T08:46:41.871Z,101371.19
2022-10-20T08:49:32.934Z,101382.47
2022-10-20T08:52:23.836Z,101389.13
2022-10-20T08:55:11.965Z,101393.88
2022-10-20T08:57:52.443Z,101398.50
2022-10-20T09:00:38.849Z,101399.72
2022-10-20T09:03:37.957Z,101390.66
2022-10-20T09:06:22.870Z,101401.03
2022-10-20T09:09:09.861Z,101407.97
2022-10-20T09:11:56.845Z,101405.56
2022-10-20T09:14:37.783Z,101404.97
2022-10-20T09:17:31.844Z,101406.16
2022-10-20T09:20:19.087Z,101415.63
2022-10-20T09:23:16.512Z,101405.63
2022-10-20T09:26:44.921Z,101411.84
2022-10-20T09:29:38.975Z,101413.50
2022-10-20T09:32:56.322Z,101413.97
2022-10-20T09:35:36.857Z,101406.97
2022-10-20T09:38:23.759Z,101402.94
2022-10-20T09:41:34.818Z,101397.50
2022-10-20T09:44:23.927Z,101406.06
2022-10-20T09:47:10.850Z,101401.38
2022-10-20T09:49:51.881Z,101408.06
2022-10-20T09:52:50.764Z,101410.06
2022-10-20T09:55:48.793Z,101407.81
2022-10-20T09:58:35.527Z,101403.03
2022-10-20T10:01:29.846Z,101395.97
2022-10-20T10:04:37.769Z,101392.78
2022-10-20T10:07:39.762Z,101395.06
2022-10-20T10:10:26.776Z,101397.75
2022-10-20T10:13:07.921Z,101404.97
2022-10-20T10:15:54.769Z,101408.22
2022-10-20T10:18:45.444Z,101408.94
2022-10-20T10:21:36.748Z,101398.50
2022-10-20T10:25:00.754Z,101408.16
2022-10-20T10:28:05.742Z,101409.97
2022-10-20T10:30:52.752Z,101403.66
2022-10-20T10:33:35.961Z,101408.34
2022-10-20T10:36:38.705Z,101396.22
2022-10-20T10:39:19.135Z,101394.84
2022-10-20T10:42:43.727Z,101395.31
2022-10-20T10:45:39.729Z,101389.41
2022-10-20T10:48:56.731Z,101385.34
2022-10-20T10:51:52.912Z,101394.88
2022-10-20T10:54:42.719Z,101376.00
2022-10-20T10:57:49.714Z,101382.72
2022-10-20T11:00:56.908Z,101385.41
2022-10-20T11:04:02.729Z,101371.78
2022-10-20T11:06:58.721Z,101364.81
2022-10-20T11:09:48.791Z,101376.56
2022-10-20T11:13:10.698Z,101370.63
2022-10-20T11:16:20.656Z,101364.59
2022-10-20T11:19:10.713Z,101366.28
2022-10-20T11:22:03.677Z,101363.72
2022-10-20T11:25:16.899Z,101359.06
2022-10-20T11:27:57.650Z,101363.00
2022-10-20T11:30:38.332Z,101368.28
2022-10-20T11:33:40.704Z,101366.63
2022-10-20T11:36:26.059Z,101363.25
2022-10-20T11:39:13.665Z,101374.03
2022-10-20T11:42:03.592Z,101367.06
2022-10-20T11:44:55.668Z,101370.13
2022-10-20T11:47:40.180Z,101371.16
2022-10-20T11:50:32.630Z,101375.34
2022-10-20T11:54:00.613Z,101382.66
2022-10-20T11:57:09.659Z,101376.56
2022-10-20T12:03:36.644Z,101368.06
2022-10-20T12:06:44.629Z,101383.13
2022-10-20T12:10:02.610Z,101380.44
2022-10-20T12:13:04.820Z,101373.22
2022-10-20T12:16:00.643Z,101363.38
2022-10-20T12:19:21.634Z,101382.25
2022-10-20T12:22:01.737Z,101377.09
2022-10-20T12:25:11.662Z,101387.19
2022-10-20T12:27:51.809Z,101387.03
2022-10-20T12:30:44.636Z,101392.09
2022-10-20T12:33:26.706Z,101387.34
2022-10-20T12:36:25.592Z,101387.34
2022-10-20T12:39:35.563Z,101397.81
2022-10-20T12:42:29.632Z,101400.13
2022-10-20T12:45:20.605Z,101394.69
2022-10-20T12:48:02.753Z,101393.47
2022-10-20T12:50:53.564Z,101389.69
2022-10-20T12:53:41.569Z,101398.13
2022-10-20T12:56:34.581Z,101406.28
2022-10-20T12:59:29.969Z,101411.75
2022-10-20T13:02:22.544Z,101417.25
2022-10-20T13:05:12.544Z,101413.84
2022-10-20T13:08:04.646Z,101417.13
2022-10-20T13:10:52.537Z,101416.69
2022-10-20T13:16:27.564Z,101425.75
2022-10-20T13:19:07.694Z,101415.53
2022-10-20T13:21:54.557Z,101424.09
2022-10-20T13:24:46.548Z,101419.78
2022-10-20T13:27:29.028Z,101426.53
2022-10-20T13:30:20.509Z,101419.28
2022-10-20T13:37:08.717Z,101420.66
2022-10-20T13:40:04.556Z,101418.09
2022-10-20T13:43:06.791Z,101410.94
2022-10-20T13:45:56.509Z,101420.25
2022-10-20T13:49:01.835Z,101417.81
2022-10-20T13:51:58.479Z,101417.41
2022-10-20T13:54:51.531Z,101423.81
2022-10-20T13:57:35.014Z,101420.84
2022-10-20T14:00:33.529Z,101426.06
2022-10-20T14:03:18.490Z,101426.53
2022-10-20T14:06:05.534Z,101422.66
2022-10-20T14:08:45.918Z,101425.44
2022-10-20T14:11:32.497Z,101428.38
2022-10-20T14:14:22.628Z,101427.09
2022-10-20T14:17:08.497Z,101426.44
2022-10-20T14:19:49.677Z,101425.16
2022-10-20T14:22:38.927Z,101427.28
2022-10-20T14:25:25.473Z,101433.66
2022-10-20T14:28:07.464Z,101435.94
2022-10-20T14:30:56.433Z,101428.94
2022-10-20T14:33:44.465Z,101427.19
2022-10-20T14:36:34.469Z,101430.63
2022-10-20T14:39:27.548Z,101429.97
2022-10-20T14:42:31.423Z,101446.97
2022-10-20T14:45:11.545Z,101438.47
2022-10-20T14:47:59.464Z,101440.28
2022-10-20T14:50:42.537Z,101439.81
2022-10-20T14:53:29.445Z,101442.59
2022-10-20T14:56:10.502Z,101444.56
2022-10-20T14:59:03.408Z,101430.50
2022-10-20T15:01:56.103Z,101443.28
2022-10-20T15:04:38.454Z,101446.19
2022-10-20T15:07:46.447Z,101447.00
2022-10-20T15:10:27.212Z,101447.31
2022-10-20T15:27:32.722Z,101476.16
2022-10-20T15:30:21.949Z,101472.09
2022-10-20T15:33:08.749Z,101477.84
2022-10-20T15:35:56.785Z,101481.13
2022-10-20T15:38:36.953Z,101484.41
2022-10-20T15:41:26.727Z,101485.84
2022-10-20T15:44:28.753Z,101490.13
2022-10-20T15:47:09.250Z,101499.91
2022-10-20T15:49:55.784Z,101493.09
2022-10-20T15:52:37.959Z,101508.41
2022-10-20T15:55:41.829Z,101501.41
2022-10-20T15:58:28.733Z,101506.94
2022-10-20T16:01:08.878Z,101507.94
2022-10-20T16:03:55.697Z,101516.41
2022-10-20T16:06:35.849Z,101522.06
2022-10-20T16:09:22.747Z,101523.72
2022-10-20T16:12:09.687Z,101529.56
2022-10-20T16:14:56.743Z,101533.44
2022-10-20T16:17:36.868Z,101525.09
2022-10-20T16:20:23.714Z,101529.13
2022-10-20T16:23:03.823Z,101526.59
2022-10-20T16:25:50.688Z,101533.63
2022-10-20T16:28:37.703Z,101544.81
2022-10-20T16:31:24.666Z,101545.84
2022-10-20T16:34:01.068Z,101546.19
2022-10-20T16:36:27.886Z,101553.09
2022-10-20T16:38:56.764Z,101549.63
2022-10-20T16:41:23.642Z,101561.84
2022-10-20T16:43:50.655Z,101569.16
2022-10-20T16:46:17.609Z,101560.84
2022-10-20T16:48:47.702Z,101569.78
2022-10-20T16:51:15.885Z,101564.22
2022-10-20T16:53:43.120Z,101562.75
2022-10-20T16:56:09.941Z,101568.84
2022-10-20T16:58:36.782Z,101564.72
2022-10-20T17:01:13.036Z,101571.63
2022-10-20T17:03:45.143Z,101572.97
2022-10-20T17:06:12.958Z,101576.09
2022-10-20T17:08:40.610Z,101575.56
2022-10-20T17:11:13.056Z,101581.00
2022-10-20T17:13:40.906Z,101579.84
2022-10-20T17:16:09.808Z,101597.41
2022-10-20T17:18:37.078Z,101595.16
2022-10-20T17:21:04.764Z,101594.38
2022-10-20T17:23:37.317Z,101600.59
2022-10-20T17:26:09.772Z,101600.75
2022-10-20T17:28:37.627Z,101597.44
2022-10-20T17:31:09.424Z,101595.69
2022-10-20T17:33:37.414Z,101599.91
2022-10-20T17:36:04.989Z,101598.19
2022-10-20T17:38:32.435Z,101605.00
2022-10-20T17:41:04.180Z,101605.13
2022-10-20T17:43:31.393Z,101601.78
2022-10-20T17:46:03.645Z,101611.53
2022-10-20T17:48:30.666Z,101605.81
2022-10-20T17:51:12.501Z,101606.53
2022-10-20T17:53:43.671Z,101611.25
2022-10-20T17:56:13.529Z,101615.72
2022-10-20T17:58:42.711Z,101619.72
2022-10-20T18:01:20.321Z,101612.72
2022-10-20T18:03:48.828Z,101612.97
2022-10-20T18:06:21.133Z,101622.09
2022-10-20T18:08:48.861Z,101615.13
2022-10-20T18:11:20.153Z,101620.56
2022-10-20T18:13:47.277Z,101619.88
2022-10-20T18:16:16.812Z,101626.88
2022-10-20T18:18:43.852Z,101621.13
2022-10-20T18:21:12.552Z,101625.22
2022-10-20T18:23:41.327Z,101627.38
2022-10-20T18:26:11.533Z,101626.84
2022-10-20T18:28:43.190Z,101633.50
2022-10-20T18:31:19.652Z,101632.03
2022-10-20T18:33:47.722Z,101635.59
2022-10-20T18:36:17.912Z,101636.31
2022-10-20T18:38:46.887Z,101642.28
2022-10-20T18:41:15.205Z,101647.03
2022-10-20T18:43:42.787Z,101659.13
2022-10-20T18:46:10.260Z,101655.84
2022-10-20T18:48:38.804Z,101654.81
2022-10-20T18:51:06.951Z,101666.25
2022-10-20T18:53:35.676Z,101671.88
2022-10-20T18:56:05.533Z,101658.44
2022-10-20T18:58:35.300Z,101667.25
2022-10-20T19:01:04.978Z,101667.94
2022-10-20T19:03:33.265Z,101672.03
2022-10-20T19:06:13.153Z,101673.78
2022-10-20T19:08:40.898Z,101672.72
2022-10-20T19:11:12.842Z,101678.09
2022-10-20T19:13:40.147Z,101685.28
2022-10-20T19:16:12.759Z,101689.75
2022-10-20T19:18:42.625Z,101689.16
2022-10-20T19:21:10.019Z,101687.22
2022-10-20T19:23:39.983Z,101693.63
2022-10-20T19:26:11.368Z,101702.03
2022-10-20T19:28:47.017Z,101696.06
2022-10-20T19:31:34.158Z,101698.03
2022-10-20T19:34:04.442Z,101711.94
2022-10-20T19:36:31.729Z,101709.78
2022-10-20T19:38:58.595Z,101712.13
2022-10-20T19:41:26.546Z,101720.47
2022-10-20T19:43:53.464Z,101714.63
2022-10-20T19:46:21.807Z,101719.91
2022-10-20T19:48:49.275Z,101714.16
2022-10-20T19:51:18.075Z,101726.25
2022-10-20T19:53:46.007Z,101727.13
2022-10-20T19:56:13.640Z,101726.63
2022-10-20T19:58:45.616Z,101732.69
2022-10-20T20:01:13.781Z,101726.75
2022-10-20T20:03:40.980Z,101740.31
2022-10-20T20:06:10.888Z,101741.41
2022-10-20T20:08:40.241Z,101740.91
2022-10-20T20:11:08.519Z,101734.06
2022-10-20T20:13:35.485Z,101738.47
2022-10-20T20:16:07.419Z,101745.63
2022-10-20T20:18:35.961Z,101746.22
2022-10-20T20:21:05.079Z,101747.31
2022-10-20T20:23:47.675Z,101747.63
2022-10-20T20:26:21.444Z,101747.91
2022-10-20T20:28:48.880Z,101751.75
2022-10-20T20:31:15.748Z,101753.66
2022-10-20T20:33:42.613Z,101751.44
2022-10-20T20:36:09.799Z,101747.84
2022-10-20T20:38:38.377Z,101758.06
2022-10-20T20:41:07.599Z,101755.19
2022-10-20T20:43:35.527Z,101753.81
2022-10-20T20:46:04.143Z,101760.41
2022-10-20T20:48:30.996Z,101757.44
2022-10-20T20:50:58.884Z,101762.69
2022-10-20T20:53:25.946Z,101768.50
2022-10-20T20:55:53.839Z,101767.16
2022-10-20T20:58:20.736Z,101768.22
2022-10-20T21:00:47.643Z,101762.72
2022-10-20T21:03:14.672Z,101766.31
2022-10-20T21:05:41.468Z,101769.06
2022-10-20T21:08:08.407Z,101756.38
2022-10-20T21:10:35.939Z,101772.91
2022-10-20T21:13:02.883Z,101766.53
2022-10-20T21:15:29.721Z,101767.84
2022-10-20T21:17:56.555Z,101766.53
2022-10-20T21:20:23.435Z,101766.50
2022-10-20T21:22:50.285Z,101772.81
2022-10-20T21:25:17.241Z,101772.53
2022-10-20T21:27:44.142Z,101770.59
2022-10-20T21:30:11.148Z,101776.13
2022-10-20T21:32:38.211Z,101770.00
2022-10-20T21:35:05.495Z,101764.25
2022-10-20T21:37:32.410Z,101767.66
2022-10-20T21:39:59.269Z,101778.69
2022-10-20T21:42:26.240Z,101779.56
2022-10-20T21:44:53.050Z,101776.88
2022-10-20T21:47:19.828Z,101782.34
2022-10-20T21:49:46.744Z,101784.63
2022-10-20T21:52:13.942Z,101776.91
2022-10-20T21:54:40.844Z,101768.34
2022-10-20T21:57:07.661Z,101777.50
2022-10-20T21:59:34.502Z,101776.44
2022-10-20T22:02:01.773Z,101779.69
2022-10-20T22:04:29.980Z,101775.63
2022-10-20T22:06:57.784Z,101772.28
2022-10-20T22:09:24.725Z,101775.88
2022-10-20T22:11:59.625Z,101779.72
2022-10-20T22:14:26.631Z,101779.50
2022-10-20T22:16:55.691Z,101781.16
2022-10-20T22:19:24.296Z,101778.16
2022-10-20T22:21:52.666Z,101772.63
2022-10-20T22:24:21.081Z,101782.81
2022-10-20T22:26:49.322Z,101778.97
2022-10-20T22:29:16.276Z,101783.66
2022-10-20T22:31:43.168Z,101778.69
2022-10-20T22:34:11.065Z,101779.28
2022-10-20T22:36:39.512Z,101774.63
2022-10-20T22:39:08.130Z,101779.88
2022-10-20T22:41:35.119Z,101775.47
2022-10-20T22:44:01.928Z,101779.66
2022-10-20T22:46:29.506Z,101786.00
2022-10-20T22:51:29.113Z,101780.84
2022-10-20T22:53:55.933Z,101793.81
2022-10-20T22:56:23.678Z,101791.38
2022-10-20T22:58:52.588Z,101793.31
2022-10-20T23:01:22.405Z,101790.56
2022-10-20T23:03:49.622Z,101794.75
2022-10-20T23:06:20.449Z,101798.09
2022-10-20T23:08:49.739Z,101787.09
2022-10-20T23:11:17.332Z,101795.09
2022-10-20T23:13:44.719Z,101797.03
2022-10-20T23:16:12.059Z,101792.66
2022-10-20T23:18:39.443Z,101792.09
2022-10-20T23:21:06.937Z,101790.50
2022-10-20T23:23:36.400Z,101795.16
2022-10-20T23:26:04.806Z,101794.06
2022-10-20T23:28:32.458Z,101789.69
2022-10-20T23:31:14.193Z,101790.25
2022-10-20T23:33:42.444Z,101788.88
2022-10-20T23:36:09.676Z,101794.38
2022-10-20T23:38:36.792Z,101803.72
2022-10-20T23:41:04.013Z,101794.13
2022-10-20T23:43:31.166Z,101800.44
2022-10-20T23:45:58.200Z,101799.59
2022-10-20T23:48:25.347Z,101795.19
2022-10-20T23:50:52.304Z,101791.34
2022-10-20T23:53:19.142Z,101795.50
2022-10-20T23:55:46.025Z,101799.59
2022-10-20T23:58:12.964Z,101805.66
